Flight Track Log - Related Links

Times and Time Zones

All times are in EDT time to prevent confusion due to time zone crossing. See the JBU609 flight status page for this flight to view local times or setup timezone preferences in your user account.

Time Position Orientation Groundspeed Altitude Reporting Facility
EDT Latitude Longitude Course Direction KTS MPH feet Rate Location/Type
12:10AM 40.6500 -73.8500 128° Southeast 182 209 2,700  Level New York TRACON
12:11AM 40.5833 -73.9000 210° Southwest 271 312 5,000 2,850 Climbing New York TRACON
12:12AM 40.5333 -73.8167 128° Southeast 306 352 8,400 2,675 Climbing New York TRACON
12:13AM 40.3644 -73.3049 131° Southeast  Level FlightAware Approximate
12:14AM 40.2859 -73.1818 128° Southeast  Level FlightAware Approximate
12:14AM 40.4742 -73.6631 117° Southeast 342 394 12,000  Level New York Center
12:15AM 40.2105 -73.0557 128° Southeast  Level FlightAware Approximate
12:15AM 40.4256 -73.5192 114° Southeast 373 429 13,400  Level New York Center
12:16AM 40.3700 -73.4025 122° Southeast 409 471 15,100 2,100 Climbing New York Center
12:17AM 40.2586 -73.3439 158° South 392 451 17,600 1,934 Climbing New York Center
12:18AM 40.1719 -73.3081 162° South 398 458 19,000 1,934 Climbing New York Center
12:19AM 40.0378 -73.2517 162° South 411 473 21,500 1,897 Climbing New York Center
12:20AM 39.9239 -73.2069 163° South 422 486 22,700 1,311 Climbing New York Center
12:21AM 39.8103 -73.1569 161° South 422 486 24,100 1,240 Climbing New York Center
12:22AM 39.6925 -73.1097 163° South 434 499 25,200 1,073 Climbing New York Center
12:23AM 39.5706 -73.0572 162° South 440 506 26,300 1,210 Climbing New York Center
12:24AM 39.4528 -73.0078 162° South 447 514 27,600 1,700 Climbing New York Center
12:25AM 39.3369 -72.9583 162° South 452 520 29,700 1,805 Climbing New York Center
12:26AM 39.2253 -72.9119 162° South 446 513 31,300 1,373 Climbing New York Center
12:27AM 39.1156 -72.8711 164° South 427 491 32,400 864 Climbing New York Center
12:28AM 39.0078 -72.8278 163° South 415 478 33,000 300 Climbing New York Center
12:29AM 38.8958 -72.7847 163° South 415 478 33,000  Level New York Center
12:30AM 38.7883 -72.7417 163° South 415 478 33,000  Level New York Center
12:31AM 38.6744 -72.6906 161° South 421 484 33,000  Level New York Center
12:32AM 38.5625 -72.6450 162° South 421 484 33,000  Level New York Center
12:33AM 38.4506 -72.6078 165° South 421 484 33,000  Level New York Center
12:34AM 38.3386 -72.5572 160° South 421 484 33,000  Level New York Center
12:35AM 38.2267 -72.5172 164° South 421 484 33,000  Level New York Center
12:36AM 38.1106 -72.4669 161° South 421 484 33,000  Level New York Center
12:37AM 37.9986 -72.4247 163° South 421 484 33,000  Level New York Center
12:38AM 37.9031 -72.3936 166° South 421 484 33,000 -50 Level New York Center
12:39AM 37.7800 -72.3908 179° South 421 484 32,900 -50 Descending New York Center
12:40AM 37.6653 -72.3936 181° South 415 478 32,900 50 Level New York Center
12:41AM 37.5633 -72.3861 177° South 401 461 33,000 51 Climbing New York Center
12:42AM 37.4506 -72.3889 181° South 395 455 33,000  Level New York Center
12:43AM 37.3378 -72.3889 180° South 402 463 33,000  Level New York Center
12:44AM 37.2147 -72.3889 180° South 415 478 33,000  Level New York Center
12:45AM 37.1064 -72.3917 181° South 413 475 33,000  Level New York Center
12:46AM 36.9956 -72.3944 181° South 413 475 33,000  Level New York Center
12:47AM 36.8789 -72.3944 180° South 413 475 33,000  Level New York Center
12:48AM 36.7661 -72.3947 180° South 413 475 33,000  Level New York Center
12:49AM 36.6514 -72.3972 181° South 413 475 33,000  Level New York Center
12:50AM 36.5325 -72.3972 180° South 423 487 33,000  Level New York Center
12:51AM 36.4239 -72.3975 180° South 417 480 33,000  Level New York Center
12:52AM 36.3050 -72.4000 181° South 417 480 33,000  Level New York Center
12:53AM 36.1883 -72.4000 180° South 424 488 33,000  Level New York Center
12:54AM 36.0692 -72.4025 181° South 424 488 33,000 -50 Level New York Center
12:55AM 35.9586 -72.4003 179° South 417 480 32,900 -50 Descending New York Center
12:56AM 35.8397 -72.4056 182° South 417 480 32,900 49 Level New York Center
12:57AM 35.7189 -72.4028 179° South 417 480 33,000 50 Climbing New York Center
12:58AM 35.5978 -72.4053 181° South 425 489 33,000 -51 Level New York Center
12:59AM 35.4850 -72.4056 180° South 419 482 32,900  Descending New York Center
01:00AM 35.3642 -72.4081 181° South 424 488 33,000 50 Climbing New York Center
01:01AM 35.2431 -72.4081 180° South 424 488 33,000  Level New York Center
01:02AM 35.1261 -72.4106 181° South 419 482 33,000  Level New York Center
01:03AM 35.0072 -72.4106 180° South 424 488 33,000 -50 Level New York Center
01:04AM 34.8944 -72.4158 182° South 418 481 32,900  Descending New York Center
01:04AM 35.0500 -72.4167 175° South 424 488 33,000 51 Climbing New York Oceanic (ODAPS)
01:06AM 34.6528 -72.4056 175° South 424 488 33,000  Level New York Center
01:07AM 34.5342 -72.3906 174° South 440 506 33,000  Level New York Center
01:14AM 33.9833 -72.3000 167° South 445 512 33,000  Level New York Oceanic (ODAPS)
01:53AM 28.9000 -70.9833 168° South 476 548 33,000  Level New York Oceanic (ODAPS)
02:20AM 25.4144 -70.1964 176° South 462 532 33,000  Level Miami Center
02:21AM 25.2602 -70.1103 168° South 476 548 33,000  Level FlightAware Transoceanic
02:21AM 25.2811 -70.1556 165° South 462 532 33,000  Level Miami Center
02:22AM 25.1301 -70.0801 168° South 476 548 33,000  Level FlightAware Transoceanic
02:22AM 25.1506 -70.1306 170° South 469 540 33,000  Level Miami Center
02:23AM 25.0000 -70.0500 176° South 476 548 33,000  Level FlightAware Transoceanic
02:23AM 25.0197 -70.0967 167° South 475 547 33,000  Level Miami Center
02:24AM 24.8654 -70.0405 176° South 476 548 33,000  Level FlightAware Transoceanic
02:24AM 24.8850 -70.0719 171° South 480 552 33,000  Level Miami Center
02:25AM 24.7309 -70.0310 176° South 476 548 33,000  Level FlightAware Transoceanic
02:25AM 24.7522 -70.0428 169° South 485 558 33,000  Level Miami Center
02:26AM 24.6161 -70.0297 175° South 490 564 33,000  Level Miami Center
02:27AM 24.4825 -70.0328 181° South 485 558 33,000  Level Miami Center
02:28AM 24.3467 -70.0242 177° South 491 565 33,000  Level Miami Center
02:29AM 24.2150 -70.0178 177° South 491 565 33,000  Level Miami Center
02:30AM 24.0767 -70.0094 177° South 491 565 33,000  Level Miami Center
02:31AM 23.9447 -69.9983 176° South 491 565 33,000  Level Miami Center
02:32AM 23.8086 -69.9856 175° South 491 565 33,000  Level Miami Center
02:33AM 23.6725 -69.9769 177° South 491 565 33,000  Level Miami Center
02:34AM 23.5408 -69.9683 177° South 491 565 33,000  Level Miami Center
02:35AM 23.4025 -69.9531 174° South 491 565 33,000  Level Miami Center
02:36AM 23.2686 -69.9469 178° South 491 565 33,000  Level Miami Center
02:37AM 23.1347 -69.9361 176° South 491 565 33,000  Level Miami Center
02:38AM 23.0006 -69.9253 176° South 491 565 33,000  Level Miami Center
02:39AM 22.8625 -69.9147 176° South 491 565 33,000  Level Miami Center
02:40AM 22.7242 -69.9017 175° South 496 571 33,000  Level Miami Center
02:41AM 22.5756 -69.8894 176° South 496 571 33,000  Level Miami Center
02:42AM 22.4439 -69.8831 177° South 496 571 33,000  Level Miami Center
02:43AM 22.3058 -69.8703 175° South 501 577 33,000  Level Miami Center
02:44AM 22.1719 -69.8617 177° South 501 577 33,000  Level Miami Center
02:45AM 22.0358 -69.8489 175° South 501 577 33,000  Level Miami Center
02:46AM 21.8997 -69.8381 176° South 496 571 33,000  Level Miami Center
02:47AM 21.7639 -69.8297 177° South 501 577 33,000  Level Miami Center
02:48AM 21.6278 -69.8189 176° South 501 577 33,000  Level Miami Center
02:49AM 21.4919 -69.8083 176° South 501 577 33,000  Level Miami Center
02:50AM 21.3561 -69.7978 176° South 501 577 33,000  Level Miami Center
02:51AM 21.2200 -69.7847 175° South 501 577 33,000  Level Miami Center
02:52AM 21.0861 -69.7761 177° South 501 577 33,000  Level Miami Center
02:53AM 20.9481 -69.7656 176° South 501 577 33,000 -50 Level Miami Center
02:54AM 20.8122 -69.7550 176° South 501 577 32,900 -492 Descending Miami Center
02:55AM 20.6722 -69.7444 176° South 501 577 32,000 -942 Descending Miami Center
02:56AM 20.5364 -69.7339 176° South 501 577 31,000 -1,000 Descending Miami Center
02:57AM 20.3983 -69.7211 175° South 501 577 30,000 -992 Descending Miami Center
02:58AM 20.2583 -69.7128 177° South 501 577 29,000 -1,000 Descending Miami Center
02:59AM 20.1183 -69.7025 176° South 501 577 28,000 -1,785 Descending Miami Center
03:00AM 19.9783 -69.6919 176° South 501 577 25,400 -1,525 Descending Miami Center
03:01AM 19.8475 -69.6986 183° South 495 570 25,000 -421 Descending Miami Center
03:03AM 19.6189 -69.7046 184° South  Level FlightAware Approximate
03:10AM 18.7789 -69.6773 174° South  Level FlightAware Approximate
03:11AM 18.6591 -69.6667 180° South  Level FlightAware Approximate
03:12AM 18.5389 -69.6667 180° South  Level FlightAware Approximate
03:13AM 18.4297 -69.6689 169° South  Level Estimated
03:14AM 18.4297 -69.6689 169° South  Level Estimated
03:15AM 18.4297 -69.6689 169° South  Level Estimated
03:16AM 18.4297 -69.6689 169° South  Level Estimated
03:17AM 18.4297 -69.6689 169° South  Level Estimated
03:18AM 18.4297 -69.6689 169° South  Level Estimated
03:19AM 18.4297 -69.6689 169° South  Level Estimated
03:20AM 18.4297 -69.6689 169° South  Level Estimated
03:21AM 18.4297 -69.6689 169° South  Level Estimated
03:22AM 18.4297 -69.6689 169° South  Level Estimated
03:23AM 18.4297 -69.6689 169° South  Level Estimated
03:24AM 18.4297 -69.6689 169° South  Level Estimated
03:25AM 18.4297 -69.6689 169° South  Level Estimated

Login

Don't have an account? Register now (free) for customized features, flight alerts, and more!